createdAt,value
2023-02-16T00:01:03.333Z,99667.16
2023-02-16T00:06:14.322Z,99648.28
2023-02-16T00:11:38.767Z,99673.09
2023-02-16T00:16:44.319Z,99660.00
2023-02-16T00:21:49.557Z,99654.06
2023-02-16T00:26:58.055Z,99653.53
2023-02-16T00:32:05.887Z,99668.34
2023-02-16T00:37:15.517Z,99677.84
2023-02-16T00:42:25.458Z,99665.75
2023-02-16T00:47:35.281Z,99660.50
2023-02-16T00:52:43.205Z,99661.19
2023-02-16T00:57:53.362Z,99642.50
2023-02-16T01:03:03.624Z,99643.34
2023-02-16T01:08:26.382Z,99642.97
2023-02-16T01:13:35.612Z,99647.25
2023-02-16T01:18:41.304Z,99639.75
2023-02-16T01:23:46.377Z,99641.19
2023-02-16T01:28:54.373Z,99636.97
2023-02-16T01:33:59.519Z,99639.38
2023-02-16T01:39:07.305Z,99632.00
2023-02-16T01:44:19.493Z,99636.78
2023-02-16T01:49:24.945Z,99629.78
2023-02-16T01:54:38.577Z,99625.34
2023-02-16T02:00:09.989Z,99627.38
2023-02-16T02:05:39.708Z,99617.25
2023-02-16T02:10:53.292Z,99626.78
2023-02-16T02:16:02.881Z,99621.72
2023-02-16T02:21:43.966Z,99618.09
2023-02-16T02:27:10.701Z,99628.97
2023-02-16T02:32:28.131Z,99623.38
2023-02-16T02:37:47.049Z,99627.03
2023-02-16T02:43:03.979Z,99614.56
2023-02-16T02:48:09.514Z,99612.31
2023-02-16T02:53:18.878Z,99610.38
2023-02-16T02:58:41.185Z,99607.75
2023-02-16T03:03:50.582Z,99606.88
2023-02-16T03:09:00.825Z,99615.81
2023-02-16T03:14:13.546Z,99611.63
2023-02-16T03:19:33.708Z,99612.22
2023-02-16T03:24:51.244Z,99603.34
2023-02-16T03:30:00.563Z,99612.22
2023-02-16T03:35:05.727Z,99609.00
2023-02-16T03:40:26.654Z,99607.31
2023-02-16T03:45:35.647Z,99626.69
2023-02-16T03:50:40.848Z,99625.25
2023-02-16T03:55:48.491Z,99624.28
2023-02-16T04:00:56.101Z,99619.06
2023-02-16T04:06:01.009Z,99619.88
2023-02-16T04:11:27.273Z,99623.03
2023-02-16T04:16:35.127Z,99609.03
2023-02-16T04:21:40.435Z,99620.66
2023-02-16T04:26:46.007Z,99615.50
2023-02-16T04:31:53.804Z,99607.81
2023-02-16T04:36:59.017Z,99598.84
2023-02-16T04:42:04.272Z,99591.16
2023-02-16T04:47:13.460Z,99602.53
2023-02-16T04:52:18.515Z,99601.63
2023-02-16T04:57:24.391Z,99599.16
2023-02-16T05:02:32.139Z,99603.53
2023-02-16T05:07:37.096Z,99605.16
2023-02-16T05:12:54.481Z,99608.13
2023-02-16T05:18:02.435Z,99604.13
2023-02-16T05:23:07.401Z,99610.63
2023-02-16T05:28:12.517Z,99607.84
2023-02-16T05:33:20.253Z,99616.94
2023-02-16T05:38:25.154Z,99617.31
2023-02-16T05:43:32.585Z,99619.16
2023-02-16T05:48:40.281Z,99617.59
2023-02-16T05:53:45.565Z,99626.66
2023-02-16T05:58:50.644Z,99624.63
2023-02-16T06:03:58.366Z,99631.69
2023-02-16T06:09:03.399Z,99631.59
2023-02-16T06:14:11.305Z,99629.63
2023-02-16T06:19:20.508Z,99621.59
2023-02-16T06:24:28.458Z,99629.06
2023-02-16T06:29:33.777Z,99636.09
2023-02-16T06:34:41.685Z,99631.69
2023-02-16T06:39:49.859Z,99639.69
2023-02-16T06:45:05.568Z,99614.41
2023-02-16T06:50:15.216Z,99637.28
2023-02-16T06:55:20.201Z,99627.19
2023-02-16T07:00:25.616Z,99635.81
2023-02-16T07:05:35.067Z,99631.72
2023-02-16T07:10:49.460Z,99625.69
2023-02-16T07:15:55.381Z,99631.28
2023-02-16T07:21:03.491Z,99617.34
2023-02-16T07:26:08.730Z,99616.88
2023-02-16T07:31:16.813Z,99610.63
2023-02-16T07:36:25.362Z,99608.00
2023-02-16T07:41:32.252Z,99609.28
2023-02-16T07:46:45.263Z,99624.09
2023-02-16T07:51:55.583Z,99629.06
2023-02-16T07:57:06.364Z,99631.53
2023-02-16T08:02:27.876Z,99627.94
2023-02-16T08:07:35.631Z,99634.97
2023-02-16T08:12:41.885Z,99633.34
2023-02-16T08:17:47.115Z,99639.00
2023-02-16T08:23:21.366Z,99644.50
2023-02-16T08:28:55.129Z,99636.81
2023-02-16T08:34:30.677Z,99619.41
2023-02-16T08:39:44.759Z,99627.13
2023-02-16T08:44:54.885Z,99624.41
2023-02-16T08:49:59.968Z,99621.69
2023-02-16T08:55:04.878Z,99631.63
2023-02-16T09:00:27.640Z,99625.16
2023-02-16T09:05:32.692Z,99608.16
2023-02-16T09:10:46.458Z,99619.13
2023-02-16T09:16:01.037Z,99600.41
2023-02-16T09:21:15.346Z,99604.44
2023-02-16T09:26:22.346Z,99594.41
2023-02-16T09:31:32.765Z,99585.41
2023-02-16T09:36:53.282Z,99587.19
2023-02-16T09:42:24.642Z,99571.66
2023-02-16T09:47:36.417Z,99572.97
2023-02-16T09:52:46.327Z,99578.97
2023-02-16T09:58:01.779Z,99576.63
2023-02-16T10:03:37.038Z,99573.47
2023-02-16T10:09:23.792Z,99570.03
2023-02-16T10:14:50.583Z,99577.78
2023-02-16T10:20:02.264Z,99572.94
2023-02-16T10:25:13.626Z,99587.91
2023-02-16T10:30:21.647Z,99575.06
2023-02-16T10:35:39.988Z,99561.78
2023-02-16T10:40:53.331Z,99568.38
2023-02-16T10:46:02.051Z,99568.78
2023-02-16T10:51:14.396Z,99563.69
2023-02-16T10:56:42.110Z,99549.09
2023-02-16T11:01:50.124Z,99546.69
2023-02-16T11:07:27.807Z,99541.34
2023-02-16T11:12:43.650Z,99535.75
2023-02-16T11:17:54.583Z,99535.09
2023-02-16T11:23:24.603Z,99536.34
2023-02-16T11:28:36.249Z,99524.56
2023-02-16T11:33:42.349Z,99523.34
2023-02-16T11:39:00.150Z,99517.22
2023-02-16T11:44:06.904Z,99510.97
2023-02-16T11:49:35.462Z,99504.53
2023-02-16T11:54:51.986Z,99501.22
2023-02-16T11:59:59.654Z,99489.84
2023-02-16T12:05:30.959Z,99495.56
2023-02-16T12:10:48.213Z,99475.88
2023-02-16T12:16:04.753Z,99485.34
2023-02-16T12:21:22.921Z,99464.81
2023-02-16T12:26:42.938Z,99464.38
2023-02-16T12:32:02.166Z,99460.38
2023-02-16T12:37:17.827Z,99461.81
2023-02-16T12:42:48.761Z,99467.22
2023-02-16T12:48:01.564Z,99459.22
2023-02-16T12:53:12.063Z,99458.41
2023-02-16T12:58:26.463Z,99450.38
2023-02-16T13:03:38.498Z,99447.25
2023-02-16T13:08:54.233Z,99439.78
2023-02-16T13:14:09.383Z,99433.34
2023-02-16T13:19:16.622Z,99437.28
2023-02-16T13:24:32.042Z,99430.25
2023-02-16T13:30:00.475Z,99421.47
2023-02-16T13:35:40.067Z,99419.25
2023-02-16T13:41:06.732Z,99416.53
2023-02-16T13:46:27.932Z,99427.22
2023-02-16T13:51:47.047Z,99423.72
2023-02-16T13:56:54.045Z,99423.25
2023-02-16T14:02:02.456Z,99428.00
2023-02-16T14:07:36.018Z,99423.72
2023-02-16T14:12:44.543Z,99428.97
2023-02-16T14:17:52.190Z,99420.97
2023-02-16T14:23:00.277Z,99424.94
2023-02-16T14:28:10.075Z,99436.88
2023-02-16T14:33:25.797Z,99441.69
2023-02-16T14:38:37.076Z,99435.88
2023-02-16T14:43:45.169Z,99439.84
2023-02-16T14:49:15.946Z,99439.94
2023-02-16T14:54:55.060Z,99452.81
2023-02-16T15:00:04.943Z,99452.72
2023-02-16T15:05:25.124Z,99449.97
2023-02-16T15:10:32.315Z,99444.28
2023-02-16T15:15:47.122Z,99446.25
2023-02-16T15:20:58.543Z,99449.50
2023-02-16T15:26:08.118Z,99440.78
2023-02-16T15:31:23.993Z,99434.38
2023-02-16T15:36:38.835Z,99436.94
2023-02-16T15:41:51.413Z,99420.94
2023-02-16T15:47:09.828Z,99431.75
2023-02-16T15:52:21.994Z,99436.13
2023-02-16T15:57:33.811Z,99433.56
2023-02-16T16:02:43.838Z,99431.13
2023-02-16T16:07:52.804Z,99432.25
2023-02-16T16:13:01.608Z,99436.22
2023-02-16T16:18:06.884Z,99441.72
2023-02-16T16:23:30.012Z,99438.53
2023-02-16T16:28:38.140Z,99438.53
2023-02-16T16:34:00.242Z,99443.03
2023-02-16T16:39:25.534Z,99449.66
2023-02-16T16:44:37.399Z,99451.78
2023-02-16T16:49:53.810Z,99442.97
2023-02-16T16:55:01.416Z,99446.81
2023-02-16T17:00:07.564Z,99449.06
2023-02-16T17:05:13.230Z,99452.13
2023-02-16T17:10:24.777Z,99445.16
2023-02-16T17:15:40.830Z,99440.66
2023-02-16T17:20:48.239Z,99437.78
2023-02-16T17:25:56.314Z,99442.84
2023-02-16T17:31:01.339Z,99436.38
2023-02-16T17:36:08.415Z,99443.13
2023-02-16T17:41:23.551Z,99448.00
2023-02-16T17:46:31.693Z,99432.13
2023-02-16T17:51:38.319Z,99422.47
2023-02-16T17:56:51.454Z,99423.84
2023-02-16T18:01:56.508Z,99413.84
2023-02-16T18:07:01.770Z,99404.50
2023-02-16T18:12:11.906Z,99416.28
2023-02-16T18:17:17.128Z,99429.31
2023-02-16T18:22:22.231Z,99429.38
2023-02-16T18:27:32.446Z,99431.88
2023-02-16T18:32:38.843Z,99427.63
2023-02-16T18:37:45.946Z,99431.81
2023-02-16T18:42:53.961Z,99440.88
2023-02-16T18:47:58.953Z,99439.78
2023-02-16T18:53:04.299Z,99441.16
2023-02-16T18:58:16.683Z,99435.25
2023-02-16T19:03:22.085Z,99437.28
2023-02-16T19:08:27.171Z,99439.38
2023-02-16T19:13:38.115Z,99458.88
2023-02-16T19:18:43.745Z,99462.16
2023-02-16T19:23:50.351Z,99465.81
2023-02-16T19:28:58.857Z,99458.28
2023-02-16T19:34:05.533Z,99447.56
2023-02-16T19:39:13.154Z,99438.31
2023-02-16T19:44:21.305Z,99443.00
2023-02-16T19:49:26.810Z,99439.03
2023-02-16T19:54:32.767Z,99441.69
2023-02-16T19:59:40.923Z,99435.69
2023-02-16T20:04:46.969Z,99435.75
2023-02-16T20:09:52.605Z,99443.31
2023-02-16T20:15:00.505Z,99441.16
2023-02-16T20:20:05.647Z,99447.56
2023-02-16T20:25:13.622Z,99453.19
2023-02-16T20:30:25.365Z,99445.47
2023-02-16T20:35:30.445Z,99444.09
2023-02-16T20:40:35.716Z,99439.38
2023-02-16T20:45:46.223Z,99429.13
2023-02-16T20:50:57.421Z,99438.72
2023-02-16T20:56:08.290Z,99440.88
2023-02-16T21:01:19.982Z,99427.72
2023-02-16T21:06:25.817Z,99429.19
2023-02-16T21:11:31.300Z,99419.22
2023-02-16T21:16:41.238Z,99416.91
2023-02-16T21:21:46.318Z,99412.00
2023-02-16T21:26:51.398Z,99415.28
2023-02-16T21:31:59.260Z,99403.97
2023-02-16T21:37:06.458Z,99395.06
2023-02-16T21:42:11.534Z,99393.50
2023-02-16T21:47:32.277Z,99389.78
2023-02-16T21:52:39.954Z,99382.13
2023-02-16T21:57:45.291Z,99380.28
2023-02-16T22:02:53.732Z,99367.84
2023-02-16T22:07:58.890Z,99364.38
2023-02-16T22:13:04.266Z,99353.53
2023-02-16T22:18:11.919Z,99350.09
2023-02-16T22:23:16.852Z,99354.03
2023-02-16T22:28:21.804Z,99362.72
2023-02-16T22:33:29.354Z,99357.50
2023-02-16T22:38:34.555Z,99352.22
2023-02-16T22:43:40.314Z,99351.13
2023-02-16T22:48:47.966Z,99341.28
2023-02-16T22:53:53.157Z,99343.41
2023-02-16T22:58:58.297Z,99332.53
2023-02-16T23:04:06.132Z,99324.06
2023-02-16T23:09:15.863Z,99315.56
2023-02-16T23:14:22.227Z,99301.78
2023-02-16T23:19:30.082Z,99297.53
2023-02-16T23:24:35.139Z,99295.91
2023-02-16T23:29:40.312Z,99285.34
2023-02-16T23:34:47.997Z,99284.28
2023-02-16T23:39:53.148Z,99282.97
2023-02-16T23:44:58.144Z,99283.47
2023-02-16T23:50:05.636Z,99282.94
2023-02-16T23:55:11.393Z,99268.34
